createdAt,value
2018-07-12T00:00:13.507Z,0.00
2018-07-12T00:01:13.505Z,0.00
2018-07-12T00:02:13.503Z,0.00
2018-07-12T00:03:13.503Z,0.00
2018-07-12T00:04:13.502Z,0.00
2018-07-12T00:05:13.502Z,0.00
2018-07-12T00:06:13.502Z,0.00
2018-07-12T00:07:13.500Z,0.00
2018-07-12T00:08:13.499Z,0.00
2018-07-12T00:09:13.500Z,0.00
2018-07-12T00:10:13.498Z,0.00
2018-07-12T00:11:13.501Z,0.00
2018-07-12T00:12:13.497Z,0.00
2018-07-12T00:13:13.495Z,0.00
2018-07-12T00:14:13.494Z,0.00
2018-07-12T00:15:13.494Z,0.00
2018-07-12T00:16:13.493Z,0.00
2018-07-12T00:17:13.491Z,0.00
2018-07-12T00:18:13.490Z,0.00
2018-07-12T00:19:13.494Z,0.00
2018-07-12T00:20:13.498Z,0.00
2018-07-12T00:21:13.489Z,0.00
2018-07-12T00:22:13.489Z,0.00
2018-07-12T00:23:13.486Z,0.00
2018-07-12T00:24:13.487Z,0.00
2018-07-12T00:25:13.485Z,0.00
2018-07-12T00:26:13.483Z,0.00
2018-07-12T00:27:13.481Z,0.00
2018-07-12T00:28:13.484Z,0.00
2018-07-12T00:29:13.483Z,0.00
2018-07-12T00:30:13.481Z,0.00
2018-07-12T00:31:13.479Z,0.00
2018-07-12T00:32:13.479Z,0.00
2018-07-12T00:33:13.479Z,0.00
2018-07-12T00:34:13.480Z,0.00
2018-07-12T00:35:13.477Z,0.00
2018-07-12T00:36:13.476Z,0.00
2018-07-12T00:37:13.478Z,0.00
2018-07-12T00:38:13.474Z,0.00
2018-07-12T00:39:13.478Z,0.00
2018-07-12T00:40:13.473Z,0.00
2018-07-12T00:41:13.472Z,0.00
2018-07-12T00:42:13.471Z,0.00
2018-07-12T00:43:13.469Z,0.00
2018-07-12T00:44:13.470Z,0.00
2018-07-12T00:45:13.469Z,0.00
2018-07-12T00:46:13.467Z,0.00
2018-07-12T00:47:13.467Z,0.00
2018-07-12T00:48:13.466Z,0.00
2018-07-12T00:49:13.465Z,0.00
2018-07-12T00:50:13.463Z,0.00
2018-07-12T00:51:13.466Z,0.00
2018-07-12T00:52:13.462Z,0.00
2018-07-12T00:53:13.461Z,0.00
2018-07-12T00:54:13.459Z,0.00
2018-07-12T00:55:13.459Z,0.00
2018-07-12T00:56:13.458Z,0.00
2018-07-12T00:57:13.457Z,0.00
2018-07-12T00:58:13.455Z,0.00
2018-07-12T00:59:13.453Z,0.00
2018-07-12T01:00:13.453Z,0.00
2018-07-12T01:01:13.452Z,0.00
2018-07-12T01:02:13.453Z,0.00
2018-07-12T01:03:13.448Z,0.00
2018-07-12T01:04:13.449Z,0.00
2018-07-12T01:05:13.448Z,0.00
2018-07-12T01:06:13.445Z,0.00
2018-07-12T01:07:13.445Z,0.00
2018-07-12T01:08:13.444Z,0.00
2018-07-12T01:09:13.444Z,0.00
2018-07-12T01:10:13.439Z,0.00
2018-07-12T01:11:13.440Z,0.00
2018-07-12T01:12:13.440Z,0.00
2018-07-12T01:13:13.439Z,0.00
2018-07-12T01:14:13.436Z,0.00
2018-07-12T01:15:13.436Z,0.00
2018-07-12T01:16:13.434Z,0.00
2018-07-12T01:17:13.436Z,0.00
2018-07-12T01:18:13.433Z,0.00
2018-07-12T01:19:13.430Z,0.00
2018-07-12T01:20:13.431Z,0.00
2018-07-12T01:21:13.428Z,0.00
2018-07-12T01:22:13.429Z,0.00
2018-07-12T01:23:13.426Z,0.00
2018-07-12T01:24:13.427Z,0.00
2018-07-12T01:25:13.423Z,0.00
2018-07-12T01:26:13.421Z,0.00
2018-07-12T01:27:13.420Z,0.00
2018-07-12T01:28:13.419Z,0.00
2018-07-12T01:29:13.420Z,0.00
2018-07-12T01:30:13.415Z,0.00
2018-07-12T01:31:13.414Z,0.00
2018-07-12T01:32:13.412Z,0.00
2018-07-12T01:33:13.412Z,0.00
2018-07-12T01:34:13.410Z,0.00
2018-07-12T01:35:13.410Z,0.00
2018-07-12T01:36:13.424Z,0.00
2018-07-12T01:37:13.406Z,0.00
2018-07-12T01:38:13.404Z,0.00
2018-07-12T01:39:13.403Z,0.00
2018-07-12T01:40:13.402Z,0.00
2018-07-12T01:41:13.401Z,0.00
2018-07-12T01:42:13.399Z,0.00
2018-07-12T01:43:13.401Z,0.00
2018-07-12T01:44:13.396Z,0.00
2018-07-12T01:45:13.395Z,0.00
2018-07-12T01:46:13.393Z,0.00
2018-07-12T01:47:13.392Z,0.00
2018-07-12T01:48:13.390Z,0.00
2018-07-12T01:49:13.390Z,0.00
2018-07-12T01:50:13.387Z,0.00
2018-07-12T01:51:13.386Z,0.00
2018-07-12T01:52:13.384Z,0.00
2018-07-12T01:53:13.390Z,0.00
2018-07-12T01:54:13.381Z,0.00
2018-07-12T01:55:13.380Z,0.00
2018-07-12T01:56:13.379Z,0.00
2018-07-12T01:57:13.377Z,0.00
2018-07-12T01:58:13.422Z,0.00
2018-07-12T01:59:13.374Z,0.00
2018-07-12T02:00:13.372Z,0.00
2018-07-12T02:01:13.373Z,0.00
2018-07-12T02:02:13.368Z,0.00
2018-07-12T02:03:13.369Z,0.00
2018-07-12T02:04:13.366Z,0.00
2018-07-12T02:05:13.365Z,0.00
2018-07-12T02:06:13.363Z,0.00
2018-07-12T02:07:13.361Z,0.00
2018-07-12T02:08:13.360Z,0.00
2018-07-12T02:09:13.359Z,0.00
2018-07-12T02:10:13.356Z,0.00
2018-07-12T02:11:13.355Z,0.00
2018-07-12T02:12:13.354Z,0.00
2018-07-12T02:13:13.353Z,0.00
2018-07-12T02:14:13.350Z,0.00
2018-07-12T02:15:13.349Z,0.00
2018-07-12T02:16:13.348Z,0.00
2018-07-12T02:17:13.346Z,0.00
2018-07-12T02:18:13.344Z,0.00
2018-07-12T02:19:13.342Z,0.00
2018-07-12T02:20:13.343Z,0.00
2018-07-12T02:21:13.340Z,0.00
2018-07-12T02:22:13.338Z,0.00
2018-07-12T02:23:13.336Z,0.00
2018-07-12T02:24:13.334Z,0.00
2018-07-12T02:25:13.335Z,0.00
2018-07-12T02:26:13.330Z,0.00
2018-07-12T02:27:13.329Z,0.00
2018-07-12T02:28:13.330Z,0.00
2018-07-12T02:29:13.327Z,0.00
2018-07-12T02:30:13.327Z,0.00
2018-07-12T02:31:13.322Z,0.00
2018-07-12T02:32:13.322Z,0.00
2018-07-12T02:33:13.320Z,0.00
2018-07-12T02:34:13.318Z,0.00
2018-07-12T02:35:13.375Z,0.00
2018-07-12T02:36:13.315Z,0.00
2018-07-12T02:37:13.314Z,0.00
2018-07-12T02:38:13.311Z,0.00
2018-07-12T02:39:13.310Z,0.00
2018-07-12T02:40:13.309Z,0.00
2018-07-12T02:41:13.307Z,0.00
2018-07-12T02:42:13.312Z,0.00
2018-07-12T02:43:13.304Z,0.00
2018-07-12T02:44:13.302Z,0.00
2018-07-12T02:45:13.301Z,0.00
2018-07-12T02:46:13.299Z,0.00
2018-07-12T02:47:13.296Z,0.00
2018-07-12T02:48:13.296Z,0.00
2018-07-12T02:49:13.294Z,0.00
2018-07-12T02:50:13.291Z,0.00
2018-07-12T02:51:13.290Z,0.00
2018-07-12T02:52:13.288Z,0.00
2018-07-12T02:53:13.287Z,0.00
2018-07-12T02:54:13.284Z,0.00
2018-07-12T02:55:13.284Z,0.00
2018-07-12T02:56:13.282Z,0.00
2018-07-12T02:57:13.279Z,0.00
2018-07-12T02:58:13.278Z,0.00
2018-07-12T02:59:13.276Z,0.00
2018-07-12T03:00:13.274Z,4.00
2018-07-12T03:01:13.272Z,4.00
2018-07-12T03:02:13.270Z,0.00
2018-07-12T03:03:13.267Z,0.00
2018-07-12T03:04:13.267Z,4.00
2018-07-12T03:05:13.265Z,4.00
2018-07-12T03:06:13.263Z,4.00
2018-07-12T03:07:13.261Z,4.00
2018-07-12T03:08:13.260Z,4.00
2018-07-12T03:09:13.260Z,4.00
2018-07-12T03:10:13.255Z,4.00
2018-07-12T03:11:13.255Z,8.00
2018-07-12T03:12:13.251Z,8.00
2018-07-12T03:13:13.250Z,8.00
2018-07-12T03:14:13.248Z,8.00
2018-07-12T03:15:13.246Z,12.00
2018-07-12T03:16:13.245Z,12.00
2018-07-12T03:17:13.247Z,12.00
2018-07-12T03:18:13.240Z,16.00
2018-07-12T03:19:13.239Z,16.00
2018-07-12T03:20:13.237Z,16.00
2018-07-12T03:21:13.236Z,20.00
2018-07-12T03:22:13.234Z,24.00
2018-07-12T03:23:13.232Z,28.00
2018-07-12T03:24:13.230Z,32.00
2018-07-12T03:25:13.229Z,32.00
2018-07-12T03:26:13.226Z,36.00
2018-07-12T03:27:13.224Z,36.00
2018-07-12T03:28:13.223Z,44.00
2018-07-12T03:29:13.220Z,44.00
2018-07-12T03:30:13.218Z,52.00
2018-07-12T03:31:13.215Z,56.00
2018-07-12T03:32:13.217Z,56.00
2018-07-12T03:33:13.212Z,60.00
2018-07-12T03:34:13.210Z,68.00
2018-07-12T03:35:13.208Z,72.00
2018-07-12T03:36:13.210Z,80.00
2018-07-12T03:37:13.204Z,84.00
2018-07-12T03:38:13.203Z,92.00
2018-07-12T03:39:13.200Z,96.00
2018-07-12T03:40:13.199Z,104.00
2018-07-12T03:41:13.197Z,108.00
2018-07-12T03:42:13.198Z,116.00
2018-07-12T03:43:13.193Z,128.00
2018-07-12T03:44:13.191Z,132.00
2018-07-12T03:45:13.188Z,140.00
2018-07-12T03:46:13.186Z,148.00
2018-07-12T03:47:13.184Z,156.00
2018-07-12T03:48:13.182Z,164.00
2018-07-12T03:49:13.181Z,172.00
2018-07-12T03:50:13.178Z,180.00
2018-07-12T03:51:13.177Z,188.00
2018-07-12T03:52:13.175Z,196.00
2018-07-12T03:53:13.174Z,204.00
2018-07-12T03:54:13.171Z,216.00
2018-07-12T03:55:13.169Z,224.00
2018-07-12T03:56:13.166Z,232.00
2018-07-12T03:57:13.164Z,240.00
2018-07-12T03:58:13.163Z,252.00
2018-07-12T03:59:13.160Z,260.00
2018-07-12T04:00:13.158Z,276.00
2018-07-12T04:01:13.157Z,280.00
2018-07-12T04:02:13.154Z,292.00
2018-07-12T04:03:13.152Z,304.00
2018-07-12T04:04:13.150Z,312.00
2018-07-12T04:05:13.149Z,320.00
2018-07-12T04:06:13.146Z,332.00
2018-07-12T04:07:13.143Z,340.00
2018-07-12T04:08:13.141Z,348.00
2018-07-12T04:09:13.141Z,356.00
2018-07-12T04:10:13.137Z,368.00
2018-07-12T04:11:13.135Z,376.00
2018-07-12T04:12:13.132Z,392.00
2018-07-12T04:13:13.132Z,400.00
2018-07-12T04:14:13.128Z,412.00
2018-07-12T04:15:13.127Z,424.00
2018-07-12T04:16:13.123Z,436.00
2018-07-12T04:17:13.126Z,444.00
2018-07-12T04:18:13.123Z,456.00
2018-07-12T04:19:13.119Z,468.00
2018-07-12T04:20:13.116Z,480.00
2018-07-12T04:21:13.116Z,488.00
2018-07-12T04:22:13.112Z,504.00
2018-07-12T04:23:13.111Z,512.00
2018-07-12T04:24:13.108Z,524.00
2018-07-12T04:25:13.107Z,536.00
2018-07-12T04:26:13.104Z,548.00
2018-07-12T04:27:13.101Z,556.00
2018-07-12T04:28:13.105Z,568.00
2018-07-12T04:29:13.098Z,580.00
2018-07-12T04:30:13.096Z,592.00
2018-07-12T04:31:13.093Z,604.00
2018-07-12T04:32:13.092Z,612.00
2018-07-12T04:33:13.090Z,628.00
2018-07-12T04:34:13.088Z,640.00
2018-07-12T04:35:13.086Z,652.00
2018-07-12T04:36:13.084Z,664.00
2018-07-12T04:37:13.082Z,676.00
2018-07-12T04:38:13.079Z,688.00
2018-07-12T04:39:13.077Z,708.00
2018-07-12T04:40:13.075Z,724.00
2018-07-12T04:41:13.074Z,740.00
2018-07-12T04:42:13.072Z,756.00
2018-07-12T04:43:13.071Z,772.00
2018-07-12T04:44:13.068Z,788.00
2018-07-12T04:45:13.065Z,796.00
2018-07-12T04:46:13.063Z,812.00
2018-07-12T04:47:13.061Z,828.00
2018-07-12T04:48:13.064Z,848.00
2018-07-12T04:49:13.058Z,864.00
2018-07-12T04:50:13.056Z,876.00
2018-07-12T04:51:13.099Z,892.00
2018-07-12T04:52:13.052Z,908.00
2018-07-12T04:53:13.050Z,920.00
2018-07-12T04:54:13.048Z,936.00
2018-07-12T04:55:13.046Z,956.00
2018-07-12T04:56:13.045Z,968.00
2018-07-12T04:57:13.043Z,984.00
2018-07-12T04:58:13.054Z,996.00
2018-07-12T04:59:13.039Z,1020.00
2018-07-12T05:00:13.037Z,1040.00
2018-07-12T05:01:13.035Z,1056.00
2018-07-12T05:02:13.033Z,1076.00
2018-07-12T05:03:13.031Z,1092.00
2018-07-12T05:04:13.033Z,1108.00
2018-07-12T05:05:13.027Z,1132.00
2018-07-12T05:06:13.026Z,1148.00
2018-07-12T05:07:13.023Z,1168.00
2018-07-12T05:08:13.068Z,1188.00
2018-07-12T05:09:13.021Z,1212.00
2018-07-12T05:10:13.018Z,1236.00
2018-07-12T05:11:13.017Z,1264.00
2018-07-12T05:12:13.050Z,1296.00
2018-07-12T05:13:13.014Z,1324.00
2018-07-12T05:14:13.012Z,1348.00
2018-07-12T05:15:13.009Z,1368.00
2018-07-12T05:16:13.085Z,1388.00
2018-07-12T05:17:13.007Z,1408.00
2018-07-12T05:18:13.007Z,1420.00
2018-07-12T05:19:13.004Z,1440.00
2018-07-12T05:20:13.000Z,1456.00
2018-07-12T05:21:13.000Z,1484.00
2018-07-12T05:22:12.998Z,1500.00
2018-07-12T05:23:12.998Z,1520.00
2018-07-12T05:24:12.994Z,1536.00
2018-07-12T05:25:12.994Z,1556.00
2018-07-12T05:26:12.992Z,1572.00
2018-07-12T05:27:12.993Z,1588.00
2018-07-12T05:28:12.988Z,1600.00
2018-07-12T05:29:12.987Z,1612.00
2018-07-12T05:30:12.985Z,1648.00
2018-07-12T05:31:12.984Z,1664.00
2018-07-12T05:32:12.982Z,1688.00
2018-07-12T05:33:12.985Z,1704.00
2018-07-12T05:34:12.983Z,1728.00
2018-07-12T05:35:12.978Z,1756.00
2018-07-12T05:36:12.977Z,1772.00
2018-07-12T05:37:12.976Z,1776.00
2018-07-12T05:38:12.974Z,1820.00
2018-07-12T05:39:13.012Z,1832.00
2018-07-12T05:40:12.972Z,1840.00
2018-07-12T05:41:12.971Z,1856.00
2018-07-12T05:42:12.968Z,1876.00
2018-07-12T05:43:12.969Z,1900.00
2018-07-12T05:44:12.966Z,1916.00
2018-07-12T05:45:12.965Z,1952.00
2018-07-12T05:46:12.962Z,1988.00
2018-07-12T05:47:12.962Z,2024.00
2018-07-12T05:48:12.960Z,2044.00
2018-07-12T05:49:12.959Z,2060.00
2018-07-12T05:50:12.957Z,2080.00
2018-07-12T05:51:12.957Z,2116.00
2018-07-12T05:52:12.956Z,2136.00
2018-07-12T05:53:12.955Z,2160.00
2018-07-12T05:54:12.953Z,2176.00
2018-07-12T05:55:12.952Z,2196.00
2018-07-12T05:56:12.951Z,2236.00
2018-07-12T05:57:12.951Z,2272.00
2018-07-12T05:58:12.948Z,2308.00
2018-07-12T05:59:12.951Z,2332.00
2018-07-12T06:00:12.950Z,2360.00
2018-07-12T06:01:12.947Z,2388.00
2018-07-12T06:02:12.945Z,2416.00
2018-07-12T06:03:12.944Z,2452.00
2018-07-12T06:04:12.944Z,2484.00
2018-07-12T06:05:12.946Z,2516.00
2018-07-12T06:06:12.941Z,2540.00
2018-07-12T06:07:12.941Z,2548.00
2018-07-12T06:08:12.940Z,2560.00
2018-07-12T06:09:12.939Z,2572.00
2018-07-12T06:10:12.938Z,2584.00
2018-07-12T06:11:12.937Z,2604.00
2018-07-12T06:12:12.937Z,2620.00
2018-07-12T06:13:12.988Z,2644.00
2018-07-12T06:14:12.935Z,2664.00
2018-07-12T06:15:12.935Z,2688.00
2018-07-12T06:16:13.024Z,2712.00
2018-07-12T06:17:13.022Z,2732.00
2018-07-12T06:18:12.932Z,2756.00
2018-07-12T06:19:12.932Z,2780.00
2018-07-12T06:20:12.931Z,2816.00
2018-07-12T06:21:12.931Z,2856.00
2018-07-12T06:22:12.930Z,2892.00
2018-07-12T06:23:12.942Z,2956.00
2018-07-12T06:24:12.931Z,3000.00
2018-07-12T06:25:12.934Z,3020.00
2018-07-12T06:26:12.927Z,3068.00
2018-07-12T06:27:12.928Z,3100.00
2018-07-12T06:28:12.928Z,3124.00
2018-07-12T06:29:12.927Z,3132.00
2018-07-12T06:30:12.925Z,3132.00
2018-07-12T06:31:12.926Z,3136.00
2018-07-12T06:32:12.925Z,3148.00
2018-07-12T06:33:12.925Z,3152.00
2018-07-12T06:34:12.924Z,3156.00
2018-07-12T06:35:12.925Z,3200.00
2018-07-12T06:36:12.929Z,3236.00
2018-07-12T06:37:12.983Z,3256.00
2018-07-12T06:38:12.925Z,3304.00
2018-07-12T06:39:12.923Z,3352.00
2018-07-12T06:40:12.927Z,3384.00
2018-07-12T06:41:12.924Z,3424.00
2018-07-12T06:42:12.923Z,3464.00
2018-07-12T06:43:12.923Z,3488.00
2018-07-12T06:44:12.922Z,3512.00
2018-07-12T06:45:12.950Z,3672.00
2018-07-12T06:46:12.924Z,3704.00
2018-07-12T06:47:12.924Z,3768.00
2018-07-12T06:48:12.925Z,3812.00
2018-07-12T06:49:12.925Z,3724.00
2018-07-12T06:50:12.925Z,3760.00
2018-07-12T06:51:12.925Z,3776.00
2018-07-12T06:52:12.926Z,3784.00
2018-07-12T06:53:12.927Z,3792.00
2018-07-12T06:54:12.926Z,3792.00
2018-07-12T06:55:12.928Z,3784.00
2018-07-12T06:56:12.928Z,3784.00
2018-07-12T06:57:12.930Z,3764.00
2018-07-12T06:58:12.929Z,3812.00
2018-07-12T06:59:12.929Z,3824.00
2018-07-12T07:00:12.929Z,3808.00
2018-07-12T07:01:12.931Z,3808.00
2018-07-12T07:02:12.932Z,3796.00
2018-07-12T07:03:12.932Z,3804.00
2018-07-12T07:04:12.932Z,3816.00
2018-07-12T07:05:12.933Z,3836.00
2018-07-12T07:06:12.941Z,3844.00
2018-07-12T07:07:12.934Z,3840.00
2018-07-12T07:08:12.936Z,3868.00
2018-07-12T07:09:12.936Z,3900.00
2018-07-12T07:10:12.937Z,3924.00
2018-07-12T07:11:12.939Z,3952.00
2018-07-12T07:12:12.939Z,3988.00
2018-07-12T07:13:12.940Z,4032.00
2018-07-12T07:14:12.941Z,4052.00
2018-07-12T07:15:12.942Z,4076.00
2018-07-12T07:16:12.944Z,4092.00
2018-07-12T07:17:13.510Z,4104.00
2018-07-12T07:18:12.947Z,4108.00
2018-07-12T07:19:12.955Z,4096.00
2018-07-12T07:20:13.002Z,4128.00
2018-07-12T07:21:12.950Z,4152.00
2018-07-12T07:22:12.950Z,4180.00
2018-07-12T07:23:12.952Z,4220.00
2018-07-12T07:24:12.954Z,4256.00
2018-07-12T07:25:12.956Z,4300.00
2018-07-12T07:26:12.992Z,4316.00
2018-07-12T07:27:12.958Z,4356.00
2018-07-12T07:28:12.960Z,4424.00
2018-07-12T07:29:12.963Z,18752.00
2018-07-12T07:30:13.322Z,35488.00
2018-07-12T07:31:12.965Z,34112.00
2018-07-12T07:32:12.967Z,24128.00
2018-07-12T07:33:12.969Z,34720.00
2018-07-12T07:34:12.970Z,30112.00
2018-07-12T07:35:12.973Z,8868.00
2018-07-12T07:36:12.993Z,33696.00
2018-07-12T07:37:12.980Z,48928.00
2018-07-12T07:38:12.982Z,27968.00
2018-07-12T07:39:12.986Z,53216.00
2018-07-12T07:40:13.173Z,84416.00
2018-07-12T07:41:12.997Z,84192.00
2018-07-12T07:42:13.005Z,84608.00
2018-07-12T07:43:13.069Z,85152.00
2018-07-12T07:44:13.014Z,85472.00
2018-07-12T07:45:13.022Z,84544.00
2018-07-12T07:46:13.028Z,83296.00
2018-07-12T07:47:13.037Z,79264.00
2018-07-12T07:48:13.043Z,70048.00
2018-07-12T07:49:13.055Z,48448.00
2018-07-12T07:50:13.058Z,32736.00
2018-07-12T07:51:13.066Z,20544.00
2018-07-12T07:52:13.074Z,10500.00
2018-07-12T07:53:13.151Z,18240.00
2018-07-12T07:54:13.090Z,21184.00
2018-07-12T07:55:13.409Z,17216.00
2018-07-12T07:58:22.328Z,23712.00
2018-07-12T07:59:22.335Z,40896.00
2018-07-12T08:00:22.344Z,43488.00
2018-07-12T08:01:22.439Z,34688.00
2018-07-12T08:02:22.359Z,24192.00
2018-07-12T08:03:22.373Z,21184.00
2018-07-12T08:04:22.372Z,34784.00
2018-07-12T08:05:22.381Z,41920.00
2018-07-12T08:06:22.389Z,53920.00
2018-07-12T08:07:22.395Z,71040.00
2018-07-12T08:08:22.405Z,76032.00
2018-07-12T08:09:22.466Z,74880.00
2018-07-12T08:10:22.419Z,76768.00
2018-07-12T08:11:22.427Z,70848.00
2018-07-12T08:12:22.436Z,67744.00
2018-07-12T08:13:22.445Z,65536.00
2018-07-12T08:14:22.458Z,60800.00
2018-07-12T08:15:22.471Z,62944.00
2018-07-12T08:16:22.489Z,63104.00
2018-07-12T08:17:22.487Z,59872.00
2018-07-12T08:18:22.499Z,59264.00
2018-07-12T08:19:22.508Z,59744.00
2018-07-12T08:20:22.521Z,28160.00
2018-07-12T08:21:22.533Z,18176.00
2018-07-12T08:22:22.544Z,32480.00
2018-07-12T08:23:22.595Z,40416.00
2018-07-12T08:24:22.565Z,56448.00
2018-07-12T08:25:22.579Z,63584.00
2018-07-12T08:26:22.590Z,52192.00
2018-07-12T08:27:22.603Z,61632.00
2018-07-12T08:28:22.615Z,62400.00
2018-07-12T08:29:22.625Z,63040.00
2018-07-12T08:30:22.638Z,65376.00
2018-07-12T08:31:22.835Z,68640.00
2018-07-12T08:32:22.663Z,68800.00
2018-07-12T08:33:22.762Z,68224.00
2018-07-12T08:34:22.687Z,69440.00
2018-07-12T08:35:22.702Z,67136.00
2018-07-12T08:36:22.714Z,31648.00
2018-07-12T08:37:23.395Z,64288.00
2018-07-12T08:38:22.741Z,61312.00
2018-07-12T08:39:22.755Z,58880.00
2018-07-12T08:40:22.771Z,60960.00
2018-07-12T08:41:22.782Z,55328.00
2018-07-12T08:42:22.803Z,55232.00
2018-07-12T08:43:22.812Z,35328.00
2018-07-12T08:44:22.822Z,62080.00
2018-07-12T08:45:22.837Z,54336.00
2018-07-12T08:46:22.921Z,60960.00
2018-07-12T08:47:22.865Z,55104.00
2018-07-12T08:48:22.906Z,54144.00
2018-07-12T08:49:22.893Z,62304.00
2018-07-12T08:50:22.906Z,61312.00
2018-07-12T08:51:22.919Z,59264.00
2018-07-12T08:52:22.958Z,59904.00
2018-07-12T08:53:22.948Z,59840.00
2018-07-12T08:54:23.228Z,58368.00
2018-07-12T08:55:23.193Z,60448.00
2018-07-12T08:56:22.990Z,60000.00
2018-07-12T08:57:23.005Z,57664.00
2018-07-12T08:58:23.020Z,56864.00
2018-07-12T08:59:23.225Z,60704.00
2018-07-12T09:00:23.048Z,64256.00
2018-07-12T09:01:23.261Z,65984.00
2018-07-12T09:02:23.079Z,64480.00
2018-07-12T09:03:23.092Z,58816.00
2018-07-12T09:04:23.106Z,62976.00
2018-07-12T09:05:23.122Z,61184.00
2018-07-12T09:06:23.135Z,60064.00
2018-07-12T09:07:23.151Z,62880.00
2018-07-12T09:08:23.165Z,61952.00
2018-07-12T09:09:23.178Z,61312.00
2018-07-12T09:10:23.195Z,61504.00
2018-07-12T09:11:23.207Z,60192.00
2018-07-12T09:12:23.222Z,61664.00
2018-07-12T09:13:23.239Z,60416.00
2018-07-12T09:14:23.251Z,59136.00
2018-07-12T09:15:23.613Z,58208.00
2018-07-12T09:16:23.278Z,56480.00
2018-07-12T09:17:23.292Z,57792.00
2018-07-12T09:18:23.308Z,54688.00
2018-07-12T09:19:23.321Z,50656.00
2018-07-12T09:20:23.343Z,50432.00
2018-07-12T09:21:23.349Z,53280.00
2018-07-12T09:22:23.365Z,56288.00
2018-07-12T09:23:23.384Z,54592.00
2018-07-12T09:24:23.392Z,54432.00
2018-07-12T09:25:23.423Z,53568.00
2018-07-12T09:26:23.422Z,52608.00
2018-07-12T09:27:23.437Z,49344.00
2018-07-12T09:28:23.452Z,45952.00
2018-07-12T09:29:23.466Z,44160.00
2018-07-12T09:30:23.480Z,45152.00
2018-07-12T09:31:23.495Z,46336.00
2018-07-12T09:32:23.509Z,43744.00
2018-07-12T09:33:23.529Z,44160.00
2018-07-12T09:34:23.538Z,45856.00
2018-07-12T09:35:23.742Z,45504.00
2018-07-12T09:36:23.567Z,44864.00
2018-07-12T09:37:23.630Z,45792.00
2018-07-12T09:38:23.597Z,41792.00
2018-07-12T09:39:23.611Z,34432.00
2018-07-12T09:40:23.627Z,31584.00
2018-07-12T09:41:23.642Z,41376.00
2018-07-12T09:42:23.653Z,40000.00
2018-07-12T09:43:23.668Z,39744.00
2018-07-12T09:44:23.921Z,39872.00
2018-07-12T09:45:23.695Z,38464.00
2018-07-12T09:46:23.709Z,36352.00
2018-07-12T09:47:23.776Z,36480.00
2018-07-12T09:48:23.736Z,36352.00
2018-07-12T09:49:23.831Z,34944.00
2018-07-12T09:50:23.764Z,33312.00
2018-07-12T09:51:23.778Z,34368.00
2018-07-12T09:52:23.792Z,32608.00
2018-07-12T09:53:23.806Z,32896.00
2018-07-12T09:54:25.191Z,34976.00
2018-07-12T09:55:23.835Z,32832.00
2018-07-12T09:56:23.915Z,31712.00
2018-07-12T09:57:23.862Z,31040.00
2018-07-12T09:58:23.877Z,29760.00
2018-07-12T09:59:23.889Z,30528.00
2018-07-12T10:00:23.905Z,29792.00
2018-07-12T10:01:23.970Z,27904.00
2018-07-12T10:02:23.932Z,28800.00
2018-07-12T10:03:23.944Z,27168.00
2018-07-12T10:04:23.956Z,23168.00
2018-07-12T10:05:23.971Z,25664.00
2018-07-12T10:06:23.985Z,24544.00
2018-07-12T10:07:23.998Z,23040.00
2018-07-12T10:08:24.011Z,25184.00
2018-07-12T10:09:24.024Z,25408.00
2018-07-12T10:10:24.062Z,24128.00
2018-07-12T10:11:24.052Z,23936.00
2018-07-12T10:12:24.064Z,23808.00
2018-07-12T10:13:24.081Z,23552.00
2018-07-12T10:14:24.091Z,21536.00
2018-07-12T10:15:24.104Z,20736.00
2018-07-12T10:16:24.115Z,20000.00
2018-07-12T10:17:24.130Z,18880.00
2018-07-12T10:18:24.148Z,16768.00
2018-07-12T10:19:24.355Z,17664.00
2018-07-12T10:20:24.171Z,17152.00
2018-07-12T10:21:24.417Z,15744.00
2018-07-12T10:22:24.445Z,15168.00
2018-07-12T10:23:24.271Z,16768.00
2018-07-12T10:24:24.223Z,17376.00
2018-07-12T10:25:24.236Z,15264.00
2018-07-12T10:26:24.250Z,16064.00
2018-07-12T10:27:24.266Z,19424.00
2018-07-12T10:28:24.275Z,18720.00
2018-07-12T10:29:24.290Z,19712.00
2018-07-12T10:30:24.301Z,17984.00
2018-07-12T10:31:24.321Z,13440.00
2018-07-12T10:32:24.327Z,11652.00
2018-07-12T10:33:24.339Z,10676.00
2018-07-12T10:34:24.353Z,10392.00
2018-07-12T10:35:24.365Z,9924.00
2018-07-12T10:36:24.380Z,9572.00
2018-07-12T10:37:24.390Z,9376.00
2018-07-12T10:38:24.403Z,8844.00
2018-07-12T10:39:24.416Z,8516.00
2018-07-12T10:40:24.428Z,8024.00
2018-07-12T10:41:24.442Z,7480.00
2018-07-12T10:42:24.662Z,7132.00
2018-07-12T10:43:25.074Z,7088.00
2018-07-12T10:44:24.986Z,7044.00
2018-07-12T10:45:24.493Z,7048.00
2018-07-12T10:46:24.505Z,7116.00
2018-07-12T10:47:24.517Z,7168.00
2018-07-12T10:48:24.528Z,7264.00
2018-07-12T10:49:24.541Z,7440.00
2018-07-12T10:50:24.681Z,7864.00
2018-07-12T10:51:24.737Z,8224.00
2018-07-12T10:52:24.882Z,7960.00
2018-07-12T10:53:24.596Z,7760.00
2018-07-12T10:54:24.603Z,4324.00
2018-07-12T10:55:24.615Z,4228.00
2018-07-12T10:56:24.624Z,4232.00
2018-07-12T10:57:24.635Z,5320.00
2018-07-12T10:58:24.647Z,5912.00
2018-07-12T10:59:24.658Z,8456.00
2018-07-12T11:00:24.668Z,8428.00
2018-07-12T11:01:24.677Z,8444.00
2018-07-12T11:02:24.766Z,8220.00
2018-07-12T11:03:24.698Z,8288.00
2018-07-12T11:04:24.742Z,8332.00
2018-07-12T11:05:24.769Z,8244.00
2018-07-12T11:06:24.730Z,8356.00
2018-07-12T11:07:24.741Z,8168.00
2018-07-12T11:08:24.750Z,8048.00
2018-07-12T11:09:24.762Z,8172.00
2018-07-12T11:10:24.783Z,8208.00
2018-07-12T11:11:24.784Z,8704.00
2018-07-12T11:12:24.793Z,8624.00
2018-07-12T11:13:24.805Z,7600.00
2018-07-12T11:14:24.817Z,9044.00
2018-07-12T11:15:24.828Z,8916.00
2018-07-12T11:16:24.839Z,8376.00
2018-07-12T11:17:24.850Z,6776.00
2018-07-12T11:18:24.861Z,9464.00
2018-07-12T11:19:24.872Z,5604.00
2018-07-12T11:20:24.882Z,9820.00
2018-07-12T11:21:24.900Z,6992.00
2018-07-12T11:22:24.905Z,9504.00
2018-07-12T11:23:24.997Z,9340.00
2018-07-12T11:24:24.925Z,8928.00
2018-07-12T11:25:24.941Z,8524.00
2018-07-12T11:26:24.948Z,7940.00
2018-07-12T11:27:25.065Z,3064.00
2018-07-12T11:28:24.968Z,6788.00
2018-07-12T11:29:24.978Z,8372.00
2018-07-12T11:30:24.991Z,8268.00
2018-07-12T11:31:24.999Z,8020.00
2018-07-12T11:32:25.098Z,7824.00
2018-07-12T11:33:25.119Z,7788.00
2018-07-12T11:34:25.028Z,7776.00
2018-07-12T11:35:25.039Z,7752.00
2018-07-12T11:36:25.046Z,7684.00
2018-07-12T11:37:25.059Z,7720.00
2018-07-12T11:38:25.068Z,7792.00
2018-07-12T11:39:25.139Z,7980.00
2018-07-12T11:40:25.223Z,8156.00
2018-07-12T11:41:25.285Z,7304.00
2018-07-12T11:42:25.104Z,7780.00
2018-07-12T11:43:25.112Z,3600.00
2018-07-12T11:44:25.128Z,3756.00
2018-07-12T11:45:25.176Z,3900.00
2018-07-12T11:46:25.140Z,8648.00
2018-07-12T11:47:25.148Z,3696.00
2018-07-12T11:48:25.176Z,3688.00
2018-07-12T11:49:25.168Z,3692.00
2018-07-12T11:50:25.176Z,9228.00
2018-07-12T11:51:25.185Z,9804.00
2018-07-12T11:52:25.192Z,8692.00
2018-07-12T11:53:25.391Z,7640.00
2018-07-12T11:54:25.210Z,7412.00
2018-07-12T11:55:25.283Z,8076.00
2018-07-12T11:56:25.227Z,9288.00
2018-07-12T11:57:25.236Z,9260.00
2018-07-12T11:58:25.248Z,9328.00
2018-07-12T11:59:25.253Z,9316.00
2018-07-12T12:00:25.262Z,7200.00
2018-07-12T12:01:25.289Z,5344.00
2018-07-12T12:02:25.281Z,5832.00
2018-07-12T12:03:25.288Z,7904.00
2018-07-12T12:04:25.295Z,10256.00
2018-07-12T12:05:25.320Z,7176.00
2018-07-12T12:06:25.312Z,5596.00
2018-07-12T12:07:25.321Z,4720.00
2018-07-12T12:08:25.327Z,4984.00
2018-07-12T12:09:25.336Z,7976.00
2018-07-12T12:10:25.344Z,10692.00
2018-07-12T12:11:25.381Z,5880.00
2018-07-12T12:12:25.359Z,6788.00
2018-07-12T12:13:25.366Z,5216.00
2018-07-12T12:14:25.376Z,6732.00
2018-07-12T12:15:25.383Z,9480.00
2018-07-12T12:16:25.390Z,10516.00
2018-07-12T12:17:25.407Z,6992.00
2018-07-12T12:18:25.406Z,5412.00
2018-07-12T12:19:25.454Z,11044.00
2018-07-12T12:20:25.420Z,8236.00
2018-07-12T12:21:25.429Z,6544.00
2018-07-12T12:22:25.442Z,10820.00
2018-07-12T12:23:25.661Z,4604.00